createdAt,value
2022-10-06T00:00:02.176Z,102299.53
2022-10-06T00:02:28.865Z,102296.53
2022-10-06T00:04:57.801Z,102294.13
2022-10-06T00:07:24.474Z,102260.63
2022-10-06T00:09:51.076Z,102296.19
2022-10-06T00:12:17.971Z,102294.72
2022-10-06T00:14:44.692Z,102293.78
2022-10-06T00:17:11.264Z,102218.50
2022-10-06T00:19:37.787Z,102276.91
2022-10-06T00:22:04.290Z,102242.06
2022-10-06T00:24:32.161Z,102278.88
2022-10-06T00:26:58.640Z,102297.34
2022-10-06T00:29:25.835Z,102297.50
2022-10-06T00:31:52.374Z,102227.19
2022-10-06T00:34:18.935Z,102289.81
2022-10-06T00:36:45.835Z,102293.97
2022-10-06T00:39:12.419Z,102289.34
2022-10-06T00:41:39.349Z,102251.22
2022-10-06T00:44:05.935Z,102254.66
2022-10-06T00:46:38.569Z,102284.31
2022-10-06T00:49:12.589Z,102265.44
2022-10-06T00:51:42.793Z,102254.44
2022-10-06T00:54:10.031Z,102286.97
2022-10-06T00:56:39.758Z,102180.38
2022-10-06T00:59:12.258Z,102258.44
2022-10-06T01:01:41.876Z,102292.59
2022-10-06T01:04:12.609Z,102289.53
2022-10-06T01:06:50.288Z,102285.81
2022-10-06T01:09:17.885Z,102284.16
2022-10-06T01:11:47.272Z,102283.97
2022-10-06T01:14:14.840Z,102266.34
2022-10-06T01:16:45.864Z,102281.59
2022-10-06T01:19:24.596Z,102253.06
2022-10-06T01:21:53.713Z,102244.59
2022-10-06T01:24:20.467Z,102254.75
2022-10-06T01:26:51.984Z,102234.94
2022-10-06T01:29:19.016Z,102152.53
2022-10-06T01:31:45.801Z,102262.75
2022-10-06T01:34:12.381Z,102240.91
2022-10-06T01:36:41.440Z,102272.66
2022-10-06T01:39:08.200Z,102237.94
2022-10-06T01:41:34.818Z,102232.75
2022-10-06T01:44:01.347Z,102173.97
2022-10-06T01:46:29.985Z,102180.47
2022-10-06T01:48:56.611Z,102269.41
2022-10-06T01:51:23.226Z,102270.84
2022-10-06T01:53:49.894Z,102273.22
2022-10-06T01:56:16.438Z,102271.97
2022-10-06T01:58:43.081Z,102256.19
2022-10-06T02:01:10.519Z,102273.13
2022-10-06T02:03:39.008Z,102269.50
2022-10-06T02:06:06.485Z,102259.31
2022-10-06T02:08:33.279Z,102275.94
2022-10-06T02:11:05.080Z,102262.16
2022-10-06T02:13:32.217Z,102276.28
2022-10-06T02:15:58.976Z,102272.63
2022-10-06T02:18:26.554Z,102219.50
2022-10-06T02:20:53.667Z,102238.44
2022-10-06T02:23:20.170Z,102277.84
2022-10-06T02:25:46.885Z,102160.22
2022-10-06T02:28:14.032Z,102271.09
2022-10-06T02:30:40.864Z,102260.19
2022-10-06T02:33:07.731Z,102148.78
2022-10-06T02:35:34.255Z,102030.59
2022-10-06T02:38:00.794Z,102120.00
2022-10-06T02:40:27.412Z,102255.66
2022-10-06T02:42:54.043Z,102175.50
2022-10-06T02:45:20.599Z,102262.50
2022-10-06T02:47:47.137Z,102231.88
2022-10-06T02:50:13.920Z,102260.13
2022-10-06T02:52:42.870Z,102271.31
2022-10-06T02:55:10.212Z,102191.53
2022-10-06T02:57:36.842Z,102193.34
2022-10-06T03:00:07.344Z,102249.75
2022-10-06T03:02:34.502Z,102279.00
2022-10-06T03:05:01.235Z,102266.28
2022-10-06T03:07:27.899Z,102283.09
2022-10-06T03:09:54.454Z,102256.25
2022-10-06T03:12:21.286Z,102251.31
2022-10-06T03:14:47.919Z,102277.03
2022-10-06T03:17:14.612Z,102274.78
2022-10-06T03:19:41.170Z,102281.00
2022-10-06T03:22:07.890Z,102140.00
2022-10-06T03:24:35.114Z,102235.75
2022-10-06T03:27:01.804Z,102275.34
2022-10-06T03:29:31.158Z,102226.16
2022-10-06T03:31:58.623Z,102271.94
2022-10-06T03:34:25.251Z,102277.16
2022-10-06T03:36:51.934Z,102269.53
2022-10-06T03:39:18.512Z,102252.28
2022-10-06T03:41:45.500Z,102277.03
2022-10-06T03:44:11.985Z,102253.28
2022-10-06T03:46:38.903Z,102242.97
2022-10-06T03:49:05.593Z,102261.19
2022-10-06T03:51:38.977Z,102176.44
2022-10-06T03:54:07.826Z,102267.44
2022-10-06T03:56:36.729Z,102276.16
2022-10-06T03:59:09.284Z,102235.22
2022-10-06T04:01:44.085Z,102262.50
2022-10-06T04:04:12.004Z,102280.41
2022-10-06T04:06:41.504Z,102232.97
2022-10-06T04:09:14.932Z,102281.28
2022-10-06T04:11:43.240Z,102260.34
2022-10-06T04:14:13.126Z,102294.53
2022-10-06T04:16:45.898Z,102259.22
2022-10-06T04:19:13.970Z,102293.16
2022-10-06T04:21:43.456Z,102244.38
2022-10-06T04:24:11.585Z,102290.59
2022-10-06T04:26:46.723Z,102239.69
2022-10-06T04:29:13.996Z,102295.53
2022-10-06T04:31:42.557Z,102176.66
2022-10-06T04:34:11.964Z,102236.88
2022-10-06T04:36:41.145Z,102307.25
2022-10-06T04:39:10.896Z,102303.72
2022-10-06T04:41:40.925Z,102308.38
2022-10-06T04:44:08.855Z,102310.66
2022-10-06T04:46:44.688Z,102293.97
2022-10-06T04:49:19.011Z,102314.88
2022-10-06T04:51:46.691Z,102311.03
2022-10-06T04:54:13.256Z,102298.03
2022-10-06T04:56:39.936Z,102253.66
2022-10-06T04:59:06.636Z,102310.34
2022-10-06T05:01:37.684Z,102284.56
2022-10-06T05:04:06.246Z,102322.75
2022-10-06T05:06:35.864Z,102324.19
2022-10-06T05:09:05.665Z,102322.34
2022-10-06T05:11:33.348Z,102246.81
2022-10-06T05:14:00.069Z,102309.03
2022-10-06T05:16:29.541Z,102248.91
2022-10-06T05:18:56.838Z,102303.22
2022-10-06T05:21:29.574Z,102325.56
2022-10-06T05:23:56.394Z,102307.34
2022-10-06T05:26:26.704Z,102228.00
2022-10-06T05:28:53.623Z,102323.88
2022-10-06T05:31:24.665Z,102314.81
2022-10-06T05:33:51.517Z,102333.19
2022-10-06T05:36:21.013Z,102317.66
2022-10-06T05:38:48.105Z,102341.13
2022-10-06T05:41:24.199Z,102335.47
2022-10-06T05:43:51.247Z,102287.09
2022-10-06T05:46:20.851Z,102297.53
2022-10-06T05:48:49.370Z,102330.06
2022-10-06T05:51:17.240Z,102334.16
2022-10-06T05:53:44.362Z,102350.72
2022-10-06T05:56:14.029Z,102294.84
2022-10-06T05:58:43.416Z,102337.47
2022-10-06T06:01:14.987Z,102347.38
2022-10-06T06:03:46.516Z,102335.78
2022-10-06T06:06:42.550Z,102306.50
2022-10-06T06:09:12.466Z,102328.69
2022-10-06T06:11:46.094Z,102279.19
2022-10-06T06:14:18.158Z,102349.06
2022-10-06T06:16:46.480Z,102360.09
2022-10-06T06:19:14.537Z,102360.53
2022-10-06T06:21:44.084Z,102250.31
2022-10-06T06:24:10.655Z,102374.25
2022-10-06T06:26:38.162Z,102356.16
2022-10-06T06:29:06.359Z,102381.06
2022-10-06T06:31:35.512Z,102315.97
2022-10-06T06:34:04.809Z,102380.22
2022-10-06T06:36:37.216Z,102342.59
2022-10-06T06:39:06.942Z,102349.38
2022-10-06T06:41:37.937Z,102375.28
2022-10-06T06:44:06.891Z,102317.44
2022-10-06T06:49:06.283Z,102398.63
2022-10-06T06:51:34.642Z,102336.13
2022-10-06T06:54:02.676Z,102391.84
2022-10-06T06:56:35.344Z,102386.78
2022-10-06T06:59:03.610Z,102414.19
2022-10-06T07:01:30.695Z,102370.06
2022-10-06T07:03:59.281Z,102414.91
2022-10-06T07:06:28.701Z,102293.69
2022-10-06T07:08:57.572Z,102395.66
2022-10-06T07:11:27.255Z,102416.97
2022-10-06T07:14:01.127Z,102417.41
2022-10-06T07:16:48.519Z,102422.47
2022-10-06T07:19:36.745Z,102385.28
2022-10-06T07:22:27.938Z,102410.72
2022-10-06T07:25:08.293Z,102347.06
2022-10-06T07:27:42.467Z,102390.59
2022-10-06T07:30:11.730Z,102386.63
2022-10-06T07:32:38.738Z,102381.25
2022-10-06T07:35:06.624Z,102404.56
2022-10-06T07:37:37.229Z,102436.50
2022-10-06T07:40:07.817Z,102426.09
2022-10-06T07:42:55.424Z,102434.00
2022-10-06T07:45:41.771Z,102426.09
2022-10-06T07:48:18.185Z,102419.94
2022-10-06T07:50:48.094Z,102261.38
2022-10-06T07:53:16.814Z,102436.69
2022-10-06T07:55:46.381Z,102375.38
2022-10-06T07:58:23.550Z,102434.81
2022-10-06T08:00:54.096Z,102433.09
2022-10-06T08:03:21.205Z,102420.34
2022-10-06T08:05:58.716Z,102435.28
2022-10-06T08:08:25.301Z,102395.91
2022-10-06T08:10:54.013Z,102444.06
2022-10-06T08:13:20.868Z,102441.28
2022-10-06T08:15:50.019Z,102420.91
2022-10-06T08:18:41.096Z,102453.66
2022-10-06T08:21:10.289Z,102452.66
2022-10-06T08:23:40.568Z,102438.19
2022-10-06T08:26:07.174Z,102406.66
2022-10-06T08:28:35.345Z,102398.59
2022-10-06T08:31:07.335Z,102452.00
2022-10-06T08:33:36.003Z,102368.94
2022-10-06T08:36:05.367Z,102460.78
2022-10-06T08:38:32.432Z,102452.00
2022-10-06T08:40:59.009Z,102441.91
2022-10-06T08:43:27.294Z,102465.16
2022-10-06T08:45:59.816Z,102439.44
2022-10-06T08:48:30.073Z,102419.50
2022-10-06T08:51:09.018Z,102457.38
2022-10-06T08:53:47.100Z,102332.47
2022-10-06T08:56:23.120Z,102445.78
2022-10-06T08:58:57.522Z,102462.63
2022-10-06T09:01:30.465Z,102325.47
2022-10-06T09:04:07.691Z,102386.00
2022-10-06T09:07:11.766Z,102469.53
2022-10-06T09:09:54.044Z,102385.63
2022-10-06T09:12:36.999Z,102470.19
2022-10-06T09:15:35.130Z,102472.13
2022-10-06T09:18:08.327Z,102473.69
2022-10-06T09:20:37.273Z,102456.13
2022-10-06T09:23:09.637Z,102389.50
2022-10-06T09:25:37.906Z,102473.25
2022-10-06T09:28:11.693Z,102453.81
2022-10-06T09:30:38.326Z,102457.03
2022-10-06T09:33:05.953Z,102436.91
2022-10-06T09:35:32.880Z,102454.44
2022-10-06T09:38:08.337Z,102457.50
2022-10-06T09:40:46.502Z,102467.97
2022-10-06T09:43:23.834Z,102446.94
2022-10-06T09:45:51.608Z,102463.19
2022-10-06T09:48:26.443Z,102447.94
2022-10-06T09:51:12.285Z,102468.66
2022-10-06T09:53:39.756Z,102324.81
2022-10-06T09:56:14.908Z,102451.44
2022-10-06T09:58:54.927Z,102455.81
2022-10-06T10:01:27.693Z,102415.19
2022-10-06T10:04:20.506Z,102456.47
2022-10-06T10:06:47.055Z,102445.38
2022-10-06T10:09:21.927Z,102398.72
2022-10-06T10:12:28.057Z,102394.38
2022-10-06T10:14:56.787Z,102418.19
2022-10-06T10:17:38.389Z,102440.47
2022-10-06T10:20:08.389Z,102443.19
2022-10-06T10:22:38.978Z,102438.25
2022-10-06T10:25:05.488Z,102409.38
2022-10-06T10:28:18.504Z,102438.59
2022-10-06T10:31:31.345Z,102437.56
2022-10-06T10:34:12.481Z,102440.38
2022-10-06T10:36:54.484Z,102365.97
2022-10-06T10:39:42.334Z,102394.13
2022-10-06T10:42:37.396Z,102422.31
2022-10-06T10:45:13.720Z,102429.56
2022-10-06T10:47:45.043Z,102422.97
2022-10-06T10:50:22.827Z,102370.31
2022-10-06T10:52:54.742Z,102412.97
2022-10-06T10:55:29.700Z,102369.59
2022-10-06T10:58:04.161Z,102357.25
2022-10-06T11:00:36.211Z,102385.41
2022-10-06T11:03:02.825Z,102390.50
2022-10-06T11:05:48.147Z,102414.59
2022-10-06T11:08:19.085Z,102415.94
2022-10-06T11:10:48.443Z,102365.78
2022-10-06T11:13:20.023Z,102415.22
2022-10-06T11:16:10.632Z,102374.38
2022-10-06T11:19:15.148Z,102366.56
2022-10-06T11:22:12.441Z,102364.47
2022-10-06T11:25:19.637Z,102408.94
2022-10-06T11:28:28.070Z,102376.69
2022-10-06T11:31:21.825Z,102413.81
2022-10-06T11:33:54.393Z,102406.53
2022-10-06T11:36:42.570Z,102402.66
2022-10-06T11:39:33.035Z,102401.13
2022-10-06T11:42:20.654Z,102383.06
2022-10-06T11:44:59.201Z,102392.00
2022-10-06T11:47:50.847Z,102390.16
2022-10-06T11:50:44.594Z,102385.75
2022-10-06T11:53:37.112Z,102379.13
2022-10-06T11:56:19.155Z,102383.25
2022-10-06T11:58:53.370Z,102384.25
2022-10-06T12:01:35.278Z,102365.16
2022-10-06T12:04:08.205Z,102371.06
2022-10-06T12:06:44.002Z,102370.59
2022-10-06T12:09:30.993Z,102376.38
2022-10-06T12:12:17.849Z,102370.13
2022-10-06T12:18:25.409Z,102344.19
2022-10-06T12:21:19.568Z,102360.72
2022-10-06T12:26:59.199Z,102308.63
2022-10-06T12:29:28.833Z,102311.34
2022-10-06T12:32:03.405Z,102357.94
2022-10-06T12:34:43.967Z,102327.53
2022-10-06T12:37:41.432Z,102320.59
2022-10-06T12:40:46.940Z,102347.00
2022-10-06T12:43:19.776Z,102350.56
2022-10-06T12:45:58.546Z,102334.38
2022-10-06T12:48:41.516Z,102339.97
2022-10-06T12:51:42.308Z,102340.81
2022-10-06T12:54:23.311Z,102334.34
2022-10-06T12:56:59.056Z,102331.88
2022-10-06T12:59:34.921Z,102311.03
2022-10-06T13:02:08.046Z,102281.47
2022-10-06T13:04:45.217Z,102320.38
2022-10-06T13:07:16.180Z,102292.69
2022-10-06T13:09:43.544Z,102288.22
2022-10-06T13:12:32.607Z,102321.13
2022-10-06T13:15:34.522Z,102314.78
2022-10-06T13:18:07.443Z,102319.56
2022-10-06T13:20:41.906Z,102333.31
2022-10-06T13:23:26.802Z,102336.84
2022-10-06T13:26:08.607Z,102324.59
2022-10-06T13:28:44.317Z,102333.31
2022-10-06T13:31:27.429Z,102324.06
2022-10-06T13:34:02.235Z,102326.88
2022-10-06T13:36:30.503Z,102279.13
2022-10-06T13:38:57.374Z,102327.88
2022-10-06T13:41:27.089Z,102320.38
2022-10-06T13:43:58.756Z,102144.31
2022-10-06T13:46:28.344Z,102136.16
2022-10-06T13:49:05.734Z,102321.44
2022-10-06T13:51:33.343Z,102317.41
2022-10-06T13:54:07.179Z,102152.25
2022-10-06T13:56:40.115Z,102261.97
2022-10-06T13:59:31.309Z,102335.22
2022-10-06T14:02:13.960Z,102145.19
2022-10-06T14:04:40.774Z,102162.03
2022-10-06T14:07:13.059Z,102265.75
2022-10-06T14:09:41.015Z,102177.50
2022-10-06T14:12:20.539Z,102160.06
2022-10-06T14:14:51.040Z,102329.88
2022-10-06T14:17:28.213Z,102295.81
2022-10-06T14:19:54.923Z,102335.13
2022-10-06T14:22:29.746Z,102335.00
2022-10-06T14:24:56.365Z,102235.41
2022-10-06T14:27:23.005Z,102321.72
2022-10-06T14:29:49.659Z,102325.19
2022-10-06T14:32:17.430Z,102285.59
2022-10-06T14:34:44.488Z,102322.66
2022-10-06T14:37:15.367Z,102251.50
2022-10-06T14:39:43.849Z,102301.59
2022-10-06T14:42:11.393Z,102334.44
2022-10-06T14:44:38.590Z,102287.28
2022-10-06T14:47:09.421Z,102256.09
2022-10-06T14:49:37.812Z,102133.59
2022-10-06T14:52:05.662Z,102128.84
2022-10-06T14:54:34.369Z,102302.09
2022-10-06T14:57:00.926Z,102300.09
2022-10-06T14:59:28.042Z,102262.22
2022-10-06T15:01:54.864Z,102326.22
2022-10-06T15:04:25.305Z,102206.97
2022-10-06T15:07:10.487Z,102314.22
2022-10-06T15:09:37.352Z,102323.41
2022-10-06T15:12:04.574Z,102190.31
2022-10-06T15:14:31.336Z,102254.69
2022-10-06T15:17:01.715Z,102273.13
2022-10-06T15:19:28.416Z,102294.41
2022-10-06T15:21:55.023Z,102274.16
2022-10-06T15:24:21.965Z,102246.25
2022-10-06T15:27:07.457Z,102302.94
2022-10-06T15:29:37.450Z,102296.31
2022-10-06T15:32:06.518Z,102307.31
2022-10-06T15:34:37.965Z,102318.00
2022-10-06T15:37:05.485Z,102190.03
2022-10-06T15:39:35.599Z,102231.47
2022-10-06T15:42:02.562Z,102168.22
2022-10-06T15:44:32.629Z,102215.09
2022-10-06T15:46:59.305Z,102307.31
2022-10-06T15:49:29.733Z,102304.69
2022-10-06T15:52:02.704Z,102166.88
2022-10-06T15:54:33.904Z,102235.97
2022-10-06T15:57:02.462Z,102247.09
2022-10-06T15:59:32.603Z,102170.97
2022-10-06T16:02:07.187Z,102174.72
2022-10-06T16:04:38.388Z,102232.03
2022-10-06T16:07:23.003Z,102295.59
2022-10-06T16:09:51.912Z,102278.97
2022-10-06T16:12:21.906Z,102224.88
2022-10-06T16:14:48.957Z,102111.66
2022-10-06T16:17:15.898Z,102275.97
2022-10-06T16:19:53.032Z,102272.59
2022-10-06T16:22:21.884Z,102312.41
2022-10-06T16:24:49.815Z,102294.63
2022-10-06T16:27:16.387Z,102292.63
2022-10-06T16:29:43.103Z,102316.91
2022-10-06T16:32:09.801Z,102322.88
2022-10-06T16:34:36.565Z,102302.69
2022-10-06T16:37:03.961Z,102229.06
2022-10-06T16:39:30.629Z,102331.66
2022-10-06T16:41:57.374Z,102205.34
2022-10-06T16:44:23.995Z,102291.50
2022-10-06T16:46:50.719Z,102315.19
2022-10-06T16:49:17.483Z,102214.75
2022-10-06T16:51:48.628Z,102333.66
2022-10-06T16:54:17.417Z,102262.28
2022-10-06T16:56:51.805Z,102121.69
2022-10-06T16:59:20.914Z,102330.66
2022-10-06T17:01:48.571Z,102266.63
2022-10-06T17:04:23.826Z,102294.81
2022-10-06T17:06:53.327Z,102133.59
2022-10-06T17:09:22.538Z,102328.13
2022-10-06T17:11:51.933Z,102337.75
2022-10-06T17:14:19.731Z,102156.44
2022-10-06T17:16:48.550Z,102243.66
2022-10-06T17:19:17.023Z,102278.13
2022-10-06T17:21:47.136Z,102249.47
2022-10-06T17:24:17.836Z,102350.09
2022-10-06T17:26:49.908Z,102354.69
2022-10-06T17:29:23.519Z,102221.88
2022-10-06T17:31:56.490Z,102342.03
2022-10-06T17:34:26.477Z,102301.03
2022-10-06T17:36:58.250Z,102357.09
2022-10-06T17:39:25.058Z,102365.75
2022-10-06T17:41:53.563Z,102381.31
2022-10-06T17:44:27.350Z,102379.97
2022-10-06T17:46:56.307Z,102343.16
2022-10-06T17:49:24.312Z,102381.47
2022-10-06T17:51:52.863Z,102380.28
2022-10-06T17:54:21.517Z,102305.34
2022-10-06T17:56:50.027Z,102363.09
2022-10-06T17:59:21.157Z,102352.97
2022-10-06T18:01:48.354Z,102383.22
2022-10-06T18:04:18.511Z,102329.19
2022-10-06T18:06:46.474Z,102372.97
2022-10-06T18:09:14.599Z,102300.97
2022-10-06T18:11:41.323Z,102379.41
2022-10-06T18:14:08.875Z,102268.06
2022-10-06T18:16:41.151Z,102381.06
2022-10-06T18:19:16.931Z,102375.19
2022-10-06T18:21:45.462Z,102378.41
2022-10-06T18:24:16.218Z,102388.38
2022-10-06T18:26:48.217Z,102392.59
2022-10-06T18:29:20.984Z,102279.03
2022-10-06T18:31:52.815Z,102316.38
2022-10-06T18:37:06.971Z,102397.69
2022-10-06T18:39:33.689Z,102366.22
2022-10-06T18:42:03.010Z,102395.63
2022-10-06T18:44:48.850Z,102400.03
2022-10-06T18:47:34.433Z,102388.19
2022-10-06T18:50:01.037Z,102393.94
2022-10-06T18:52:27.539Z,102404.75
2022-10-06T18:54:54.091Z,102377.03
2022-10-06T18:57:27.197Z,102387.34
2022-10-06T18:59:55.132Z,102403.06
2022-10-06T19:02:21.981Z,102371.59
2022-10-06T19:04:48.734Z,102413.19
2022-10-06T19:07:15.499Z,102402.69
2022-10-06T19:09:46.410Z,102418.78
2022-10-06T19:12:13.914Z,102420.94
2022-10-06T19:14:47.351Z,102404.19
2022-10-06T19:17:15.227Z,102285.97
2022-10-06T19:19:51.500Z,102411.47
2022-10-06T19:22:25.057Z,102430.72
2022-10-06T19:24:52.748Z,102433.44
2022-10-06T19:27:25.090Z,102419.38
2022-10-06T19:29:54.828Z,102432.22
2022-10-06T19:32:26.822Z,102438.28
2022-10-06T19:34:58.933Z,102437.75
2022-10-06T19:37:30.957Z,102438.94
2022-10-06T19:39:58.346Z,102367.66
2022-10-06T19:42:44.636Z,102425.34
2022-10-06T19:45:21.520Z,102355.97
2022-10-06T19:47:49.249Z,102443.09
2022-10-06T19:50:17.423Z,102409.56
2022-10-06T19:52:44.818Z,102458.44
2022-10-06T19:55:12.101Z,102446.06
2022-10-06T19:57:41.214Z,102454.19
2022-10-06T20:00:10.676Z,102314.97
2022-10-06T20:02:42.173Z,102404.66
2022-10-06T20:05:15.918Z,102258.56
2022-10-06T20:07:45.802Z,102456.88
2022-10-06T20:10:14.212Z,102443.97
2022-10-06T20:12:42.097Z,102443.47
2022-10-06T20:15:10.522Z,102427.69
2022-10-06T20:17:39.918Z,102466.81
2022-10-06T20:20:07.647Z,102326.16
2022-10-06T20:22:35.066Z,102466.72
2022-10-06T20:25:06.911Z,102465.53
2022-10-06T20:27:35.085Z,102419.38
2022-10-06T20:30:19.820Z,102393.69
2022-10-06T20:32:46.932Z,102384.16
2022-10-06T20:35:17.808Z,102459.38
2022-10-06T20:37:47.152Z,102474.47
2022-10-06T20:40:32.706Z,102421.66
2022-10-06T20:43:00.875Z,102465.31
2022-10-06T20:45:27.466Z,102239.94
2022-10-06T20:47:54.059Z,102297.81
2022-10-06T20:50:21.361Z,102428.44
2022-10-06T20:52:48.124Z,102472.31
2022-10-06T20:55:17.709Z,102471.72
2022-10-06T20:57:48.497Z,102471.03
2022-10-06T21:00:15.710Z,102478.72
2022-10-06T21:02:42.486Z,102477.34
2022-10-06T21:05:12.181Z,102468.09
2022-10-06T21:07:40.107Z,102460.78
2022-10-06T21:10:07.752Z,102355.16
2022-10-06T21:12:34.513Z,102435.19
2022-10-06T21:15:01.372Z,102470.94
2022-10-06T21:17:27.998Z,102455.06
2022-10-06T21:19:55.091Z,102264.53
2022-10-06T21:22:22.200Z,102446.88
2022-10-06T21:24:50.098Z,102449.72
2022-10-06T21:27:18.999Z,102481.69
2022-10-06T21:29:47.752Z,102484.53
2022-10-06T21:32:14.729Z,102481.19
2022-10-06T21:34:41.343Z,102480.63
2022-10-06T21:37:07.981Z,102474.72
2022-10-06T21:39:34.885Z,102433.16
2022-10-06T21:42:01.730Z,102478.13
2022-10-06T21:44:28.521Z,102471.50
2022-10-06T21:46:56.077Z,102473.91
2022-10-06T21:49:24.882Z,102440.97
2022-10-06T21:51:54.087Z,102466.56
2022-10-06T21:54:54.071Z,102468.03
2022-10-06T21:57:20.767Z,102470.31
2022-10-06T21:59:47.651Z,102419.28
2022-10-06T22:02:20.360Z,102347.63
2022-10-06T22:04:47.011Z,102451.91
2022-10-06T22:07:14.970Z,102463.22
2022-10-06T22:09:41.808Z,102457.84
2022-10-06T22:12:08.586Z,102433.25
2022-10-06T22:14:37.981Z,102456.44
2022-10-06T22:17:08.668Z,102415.59
2022-10-06T22:19:35.354Z,102450.66
2022-10-06T22:22:03.432Z,102451.06
2022-10-06T22:24:32.991Z,102450.38
2022-10-06T22:27:01.822Z,102376.75
2022-10-06T22:29:31.755Z,102423.22
2022-10-06T22:31:58.913Z,102443.44
2022-10-06T22:34:26.523Z,102412.47
2022-10-06T22:37:20.698Z,102426.44
2022-10-06T22:39:49.408Z,102432.34
2022-10-06T22:42:16.152Z,102444.53
2022-10-06T22:44:44.129Z,102422.75
2022-10-06T22:47:10.824Z,102419.59
2022-10-06T22:49:37.440Z,102373.09
2022-10-06T22:52:04.284Z,102221.94
2022-10-06T22:54:32.328Z,102416.84
2022-10-06T22:56:59.063Z,102381.25
2022-10-06T22:59:26.186Z,102411.22
2022-10-06T23:01:54.138Z,102372.91
2022-10-06T23:04:20.985Z,102239.41
2022-10-06T23:06:47.805Z,102299.72
2022-10-06T23:09:16.569Z,102270.63
2022-10-06T23:11:43.305Z,102348.03
2022-10-06T23:14:10.179Z,102372.78
2022-10-06T23:16:36.857Z,102182.00
2022-10-06T23:19:03.734Z,102419.16
2022-10-06T23:21:30.427Z,102408.81
2022-10-06T23:24:00.195Z,102301.16
2022-10-06T23:26:27.919Z,102356.81
2022-10-06T23:28:59.879Z,102391.00
2022-10-06T23:31:27.891Z,102396.41
2022-10-06T23:33:58.239Z,102397.81
2022-10-06T23:36:25.044Z,102391.00
2022-10-06T23:38:51.831Z,102408.88
2022-10-06T23:41:18.936Z,102404.63
2022-10-06T23:43:46.074Z,102396.16
2022-10-06T23:46:13.452Z,102317.00
2022-10-06T23:48:40.234Z,102310.25
2022-10-06T23:51:12.944Z,102330.56
2022-10-06T23:53:40.104Z,102376.06
2022-10-06T23:56:07.326Z,102384.00
2022-10-06T23:58:34.327Z,102237.78
